sensor_id;sensor_type;location;lat;lon;timestamp;pressure;altitude;pressure_sealevel;temperature
76009;BMP280;64700;52.130;21.270;2024-03-08T00:01:04;101487.72;;;19.98
76009;BMP280;64700;52.130;21.270;2024-03-08T00:03:30;101478.81;;;19.98
76009;BMP280;64700;52.130;21.270;2024-03-08T00:05:57;101478.09;;;19.97
76009;BMP280;64700;52.130;21.270;2024-03-08T00:08:22;101484.25;;;19.98
76009;BMP280;64700;52.130;21.270;2024-03-08T00:10:47;101482.00;;;19.96
76009;BMP280;64700;52.130;21.270;2024-03-08T00:13:13;101478.50;;;19.96
76009;BMP280;64700;52.130;21.270;2024-03-08T00:15:38;101475.78;;;19.96
76009;BMP280;64700;52.130;21.270;2024-03-08T00:18:03;101479.28;;;19.96
76009;BMP280;64700;52.130;21.270;2024-03-08T00:20:28;101473.06;;;19.96
76009;BMP280;64700;52.130;21.270;2024-03-08T00:22:53;101475.78;;;19.96
76009;BMP280;64700;52.130;21.270;2024-03-08T00:25:19;101475.78;;;19.96
76009;BMP280;64700;52.130;21.270;2024-03-08T00:27:44;101473.50;;;19.94
76009;BMP280;64700;52.130;21.270;2024-03-08T00:30:09;101475.03;;;19.95
76009;BMP280;64700;52.130;21.270;2024-03-08T00:32:34;101473.50;;;19.94
76009;BMP280;64700;52.130;21.270;2024-03-08T00:35:00;101474.28;;;19.95
76009;BMP280;64700;52.130;21.270;2024-03-08T00:37:26;101472.75;;;19.94
76009;BMP280;64700;52.130;21.270;2024-03-08T00:39:51;101469.28;;;19.93
76009;BMP280;64700;52.130;21.270;2024-03-08T00:42:17;101475.91;;;19.92
76009;BMP280;64700;52.130;21.270;2024-03-08T00:44:42;101478.28;;;19.90
76009;BMP280;64700;52.130;21.270;2024-03-08T00:47:07;101474.03;;;19.89
76009;BMP280;64700;52.130;21.270;2024-03-08T00:49:32;101469.03;;;19.88
76009;BMP280;64700;52.130;21.270;2024-03-08T00:51:58;101464.38;;;19.88
76009;BMP280;64700;52.130;21.270;2024-03-08T00:54:23;101467.09;;;19.88
76009;BMP280;64700;52.130;21.270;2024-03-08T00:56:48;101463.63;;;19.88
76009;BMP280;64700;52.130;21.270;2024-03-08T00:59:13;101467.09;;;19.88
76009;BMP280;64700;52.130;21.270;2024-03-08T01:01:39;101463.63;;;19.88
76009;BMP280;64700;52.130;21.270;2024-03-08T01:04:04;101460.91;;;19.88
76009;BMP280;64700;52.130;21.270;2024-03-08T01:06:29;101468.72;;;19.86
76009;BMP280;64700;52.130;21.270;2024-03-08T01:08:55;101465.22;;;19.85
76009;BMP280;64700;52.130;21.270;2024-03-08T01:11:20;101459.47;;;19.83
76009;BMP280;64700;52.130;21.270;2024-03-08T01:13:45;101464.16;;;19.83
76009;BMP280;64700;52.130;21.270;2024-03-08T01:16:12;101460.69;;;19.82
76009;BMP280;64700;52.130;21.270;2024-03-08T01:18:37;101455.66;;;19.81
76009;BMP280;64700;52.130;21.270;2024-03-08T01:21:02;101461.09;;;19.81
76009;BMP280;64700;52.130;21.270;2024-03-08T01:23:27;101452.22;;;19.80
76009;BMP280;64700;52.130;21.270;2024-03-08T01:25:54;101451.47;;;19.80
76009;BMP280;64700;52.130;21.270;2024-03-08T01:28:22;101454.59;;;19.78
76009;BMP280;64700;52.130;21.270;2024-03-08T01:30:47;101447.66;;;19.77
76009;BMP280;64700;52.130;21.270;2024-03-08T01:33:14;101448.84;;;19.76
76009;BMP280;64700;52.130;21.270;2024-03-08T01:35:39;101448.09;;;19.76
76009;BMP280;64700;52.130;21.270;2024-03-08T01:38:06;101444.63;;;19.75
76009;BMP280;64700;52.130;21.270;2024-03-08T01:40:31;101447.34;;;19.75
76009;BMP280;64700;52.130;21.270;2024-03-08T01:42:56;101452.00;;;19.75
76009;BMP280;64700;52.130;21.270;2024-03-08T01:45:21;101448.50;;;19.74
76009;BMP280;64700;52.130;21.270;2024-03-08T01:47:47;101451.63;;;19.73
76009;BMP280;64700;52.130;21.270;2024-03-08T01:50:13;101447.41;;;19.72
76009;BMP280;64700;52.130;21.270;2024-03-08T01:52:38;101445.44;;;19.72
76009;BMP280;64700;52.130;21.270;2024-03-08T01:55:04;101443.19;;;19.71
76009;BMP280;64700;52.130;21.270;2024-03-08T01:57:32;101443.19;;;19.71
76009;BMP280;64700;52.130;21.270;2024-03-08T02:00:00;101442.84;;;19.68
76009;BMP280;64700;52.130;21.270;2024-03-08T02:02:33;101431.69;;;19.66
76009;BMP280;64700;52.130;21.270;2024-03-08T02:05:00;101437.09;;;19.66
76009;BMP280;64700;52.130;21.270;2024-03-08T02:07:25;101437.88;;;19.67
76009;BMP280;64700;52.130;21.270;2024-03-08T02:09:51;101429.81;;;19.63
76009;BMP280;64700;52.130;21.270;2024-03-08T02:12:16;101424.38;;;19.63
76009;BMP280;64700;52.130;21.270;2024-03-08T02:14:41;101422.44;;;19.64
76009;BMP280;64700;52.130;21.270;2024-03-08T02:17:08;101423.63;;;19.63
76009;BMP280;64700;52.130;21.270;2024-03-08T02:19:33;101422.88;;;19.62
76009;BMP280;64700;52.130;21.270;2024-03-08T02:22:00;101424.38;;;19.63
76009;BMP280;64700;52.130;21.270;2024-03-08T02:24:29;101427.09;;;19.63
76009;BMP280;64700;52.130;21.270;2024-03-08T02:26:55;101427.09;;;19.63
76009;BMP280;64700;52.130;21.270;2024-03-08T02:29:21;101415.94;;;19.61
76009;BMP280;64700;52.130;21.270;2024-03-08T02:31:46;101413.97;;;19.62
76009;BMP280;64700;52.130;21.270;2024-03-08T02:34:11;101415.16;;;19.61
76009;BMP280;64700;52.130;21.270;2024-03-08T02:36:37;101413.97;;;19.62
76009;BMP280;64700;52.130;21.270;2024-03-08T02:39:02;101408.97;;;19.60
76009;BMP280;64700;52.130;21.270;2024-03-08T02:41:27;101412.03;;;19.62
76009;BMP280;64700;52.130;21.270;2024-03-08T02:43:53;101411.69;;;19.60
76009;BMP280;64700;52.130;21.270;2024-03-08T02:46:18;101412.47;;;19.61
76009;BMP280;64700;52.130;21.270;2024-03-08T02:48:43;101416.34;;;19.60
76009;BMP280;64700;52.130;21.270;2024-03-08T02:51:08;101410.16;;;19.59
76009;BMP280;64700;52.130;21.270;2024-03-08T02:53:35;101410.59;;;19.58
76009;BMP280;64700;52.130;21.270;2024-03-08T02:56:00;101405.94;;;19.58
76009;BMP280;64700;52.130;21.270;2024-03-08T02:58:25;101409.84;;;19.57
76009;BMP280;64700;52.130;21.270;2024-03-08T03:00:51;101403.22;;;19.58
76009;BMP280;64700;52.130;21.270;2024-03-08T03:03:16;101400.94;;;19.57
76009;BMP280;64700;52.130;21.270;2024-03-08T03:05:41;101396.69;;;19.56
76009;BMP280;64700;52.130;21.270;2024-03-08T03:08:06;101409.50;;;19.55
76009;BMP280;64700;52.130;21.270;2024-03-08T03:10:33;101408.72;;;19.55
76009;BMP280;64700;52.130;21.270;2024-03-08T03:12:58;101403.31;;;19.55
76009;BMP280;64700;52.130;21.270;2024-03-08T03:15:24;101399.81;;;19.54
76009;BMP280;64700;52.130;21.270;2024-03-08T03:17:49;101403.00;;;19.53
76009;BMP280;64700;52.130;21.270;2024-03-08T03:20:17;101409.94;;;19.54
76009;BMP280;64700;52.130;21.270;2024-03-08T03:22:50;101402.22;;;19.52
76009;BMP280;64700;52.130;21.270;2024-03-08T03:25:19;101411.13;;;19.53
76009;BMP280;64700;52.130;21.270;2024-03-08T03:27:53;101413.09;;;19.52
76009;BMP280;64700;52.130;21.270;2024-03-08T03:30:21;101402.66;;;19.51
76009;BMP280;64700;52.130;21.270;2024-03-08T03:32:47;101405.38;;;19.51
76009;BMP280;64700;52.130;21.270;2024-03-08T03:35:12;101402.66;;;19.51
76009;BMP280;64700;52.130;21.270;2024-03-08T03:37:37;101396.91;;;19.49
76009;BMP280;64700;52.130;21.270;2024-03-08T03:40:05;101405.06;;;19.49
76009;BMP280;64700;52.130;21.270;2024-03-08T03:42:30;101390.72;;;19.48
76009;BMP280;64700;52.130;21.270;2024-03-08T03:44:55;101403.94;;;19.46
76009;BMP280;64700;52.130;21.270;2024-03-08T03:47:20;101400.47;;;19.46
76009;BMP280;64700;52.130;21.270;2024-03-08T03:49:46;101398.97;;;19.45
76009;BMP280;64700;52.130;21.270;2024-03-08T03:52:11;101385.41;;;19.45
76009;BMP280;64700;52.130;21.270;2024-03-08T03:54:36;101391.59;;;19.45
76009;BMP280;64700;52.130;21.270;2024-03-08T03:57:01;101396.25;;;19.45
76009;BMP280;64700;52.130;21.270;2024-03-08T03:59:27;101395.47;;;19.44
76009;BMP280;64700;52.130;21.270;2024-03-08T04:01:53;101392.75;;;19.44
76009;BMP280;64700;52.130;21.270;2024-03-08T04:04:18;101391.66;;;19.42
76009;BMP280;64700;52.130;21.270;2024-03-08T04:06:43;101391.66;;;19.42
76009;BMP280;64700;52.130;21.270;2024-03-08T04:09:09;101390.16;;;19.41
76009;BMP280;64700;52.130;21.270;2024-03-08T04:11:35;101385.16;;;19.39
76009;BMP280;64700;52.130;21.270;2024-03-08T04:14:00;101386.69;;;19.40
76009;BMP280;64700;52.130;21.270;2024-03-08T04:16:25;101388.28;;;19.38
76009;BMP280;64700;52.130;21.270;2024-03-08T04:18:50;101389.81;;;19.39
76009;BMP280;64700;52.130;21.270;2024-03-08T04:21:16;101383.31;;;19.36
76009;BMP280;64700;52.130;21.270;2024-03-08T04:23:41;101386.78;;;19.37
76009;BMP280;64700;52.130;21.270;2024-03-08T04:26:08;101386.78;;;19.37
76009;BMP280;64700;52.130;21.270;2024-03-08T04:28:34;101374.44;;;19.36
76009;BMP280;64700;52.130;21.270;2024-03-08T04:30:59;101393.06;;;19.34
76009;BMP280;64700;52.130;21.270;2024-03-08T04:33:25;101378.75;;;19.33
76009;BMP280;64700;52.130;21.270;2024-03-08T04:35:50;101386.47;;;19.35
76009;BMP280;64700;52.130;21.270;2024-03-08T04:38:16;101381.91;;;19.32
76009;BMP280;64700;52.130;21.270;2024-03-08T04:40:41;101385.34;;;19.32
76009;BMP280;64700;52.130;21.270;2024-03-08T04:43:06;101381.91;;;19.32
76009;BMP280;64700;52.130;21.270;2024-03-08T04:45:33;101391.22;;;19.31
76009;BMP280;64700;52.130;21.270;2024-03-08T04:47:58;101383.09;;;19.31
76009;BMP280;64700;52.130;21.270;2024-03-08T04:50:23;101383.88;;;19.31
76009;BMP280;64700;52.130;21.270;2024-03-08T04:52:49;101381.91;;;19.32
76009;BMP280;64700;52.130;21.270;2024-03-08T04:55:14;101390.78;;;19.32
76009;BMP280;64700;52.130;21.270;2024-03-08T04:57:39;101382.34;;;19.30
76009;BMP280;64700;52.130;21.270;2024-03-08T05:00:04;101378.84;;;19.30
76009;BMP280;64700;52.130;21.270;2024-03-08T05:02:36;101381.91;;;19.32
76009;BMP280;64700;52.130;21.270;2024-03-08T05:05:02;101392.00;;;19.31
76009;BMP280;64700;52.130;21.270;2024-03-08T05:07:31;101381.16;;;19.31
76009;BMP280;64700;52.130;21.270;2024-03-08T05:09:56;101386.13;;;19.33
76009;BMP280;64700;52.130;21.270;2024-03-08T05:12:22;101382.66;;;19.32
76009;BMP280;64700;52.130;21.270;2024-03-08T05:14:47;101376.50;;;19.32
76009;BMP280;64700;52.130;21.270;2024-03-08T05:17:14;101386.47;;;19.35
76009;BMP280;64700;52.130;21.270;2024-03-08T05:19:39;101393.41;;;19.36
76009;BMP280;64700;52.130;21.270;2024-03-08T05:22:04;101391.13;;;19.34
76009;BMP280;64700;52.130;21.270;2024-03-08T05:24:30;101388.00;;;19.36
76009;BMP280;64700;52.130;21.270;2024-03-08T05:26:55;101392.97;;;19.37
76009;BMP280;64700;52.130;21.270;2024-03-08T05:29:20;101384.81;;;19.37
76009;BMP280;64700;52.130;21.270;2024-03-08T05:31:46;101388.63;;;19.40
76009;BMP280;64700;52.130;21.270;2024-03-08T05:34:12;101380.81;;;19.42
76009;BMP280;64700;52.130;21.270;2024-03-08T05:36:39;101384.84;;;19.50
76009;BMP280;64700;52.130;21.270;2024-03-08T05:39:04;101377.81;;;19.52
76009;BMP280;64700;52.130;21.270;2024-03-08T05:41:31;101384.31;;;19.55
76009;BMP280;64700;52.130;21.270;2024-03-08T05:43:56;101378.56;;;19.53
76009;BMP280;64700;52.130;21.270;2024-03-08T05:46:21;101379.75;;;19.52
76009;BMP280;64700;52.130;21.270;2024-03-08T05:48:47;101377.94;;;19.61
76009;BMP280;64700;52.130;21.270;2024-03-08T05:51:12;101384.44;;;19.64
76009;BMP280;64700;52.130;21.270;2024-03-08T05:53:37;101371.88;;;19.70
76009;BMP280;64700;52.130;21.270;2024-03-08T05:56:02;101373.38;;;19.71
76009;BMP280;64700;52.130;21.270;2024-03-08T05:58:28;101377.94;;;19.74
76009;BMP280;64700;52.130;21.270;2024-03-08T06:00:55;101374.44;;;19.74
76009;BMP280;64700;52.130;21.270;2024-03-08T06:03:20;101376.78;;;19.75
76009;BMP280;64700;52.130;21.270;2024-03-08T06:05:46;101376.00;;;19.75
76009;BMP280;64700;52.130;21.270;2024-03-08T06:08:12;101378.34;;;19.73
76009;BMP280;64700;52.130;21.270;2024-03-08T06:10:39;101381.31;;;19.78
76009;BMP280;64700;52.130;21.270;2024-03-08T06:13:04;101378.72;;;19.75
76009;BMP280;64700;52.130;21.270;2024-03-08T06:15:30;101386.50;;;19.73
76009;BMP280;64700;52.130;21.270;2024-03-08T06:17:55;101389.31;;;19.69
76009;BMP280;64700;52.130;21.270;2024-03-08T06:20:20;101383.13;;;19.68
76009;BMP280;64700;52.130;21.270;2024-03-08T06:22:45;101389.31;;;19.69
76009;BMP280;64700;52.130;21.270;2024-03-08T06:25:11;101385.84;;;19.68
76009;BMP280;64700;52.130;21.270;2024-03-08T06:27:39;101387.81;;;19.68
76009;BMP280;64700;52.130;21.270;2024-03-08T06:30:04;101388.56;;;19.68
76009;BMP280;64700;52.130;21.270;2024-03-08T06:32:30;101390.53;;;19.68
76009;BMP280;64700;52.130;21.270;2024-03-08T06:34:55;101392.47;;;19.67
76009;BMP280;64700;52.130;21.270;2024-03-08T06:37:20;101395.94;;;19.68
76009;BMP280;64700;52.130;21.270;2024-03-08T06:39:47;101393.22;;;19.68
76009;BMP280;64700;52.130;21.270;2024-03-08T06:42:12;101386.31;;;19.67
76009;BMP280;64700;52.130;21.270;2024-03-08T06:44:37;101390.53;;;19.68
76009;BMP280;64700;52.130;21.270;2024-03-08T06:47:03;101391.28;;;19.68
76009;BMP280;64700;52.130;21.270;2024-03-08T06:49:31;101382.50;;;19.77
76009;BMP280;64700;52.130;21.270;2024-03-08T06:51:56;101389.47;;;19.78
76009;BMP280;64700;52.130;21.270;2024-03-08T06:54:22;101396.41;;;19.79
76009;BMP280;64700;52.130;21.270;2024-03-08T06:56:47;101394.13;;;19.78
76009;BMP280;64700;52.130;21.270;2024-03-08T06:59:13;101382.84;;;19.79
76009;BMP280;64700;52.130;21.270;2024-03-08T07:01:38;101386.31;;;19.80
76009;BMP280;64700;52.130;21.270;2024-03-08T07:04:03;101387.81;;;19.81
76009;BMP280;64700;52.130;21.270;2024-03-08T07:06:30;101391.28;;;19.81
76009;BMP280;64700;52.130;21.270;2024-03-08T07:08:58;101389.78;;;19.80
76009;BMP280;64700;52.130;21.270;2024-03-08T07:11:24;101389.03;;;19.80
76009;BMP280;64700;52.130;21.270;2024-03-08T07:13:49;101390.53;;;19.81
76009;BMP280;64700;52.130;21.270;2024-03-08T07:16:14;101383.50;;;19.83
76009;BMP280;64700;52.130;21.270;2024-03-08T07:18:39;101390.44;;;19.84
76009;BMP280;64700;52.130;21.270;2024-03-08T07:21:08;101378.38;;;19.85
76009;BMP280;64700;52.130;21.270;2024-03-08T07:23:33;101373.28;;;19.87
76009;BMP280;64700;52.130;21.270;2024-03-08T07:26:17;101382.50;;;19.90
76009;BMP280;64700;52.130;21.270;2024-03-08T07:28:43;101372.41;;;19.90
76009;BMP280;64700;52.130;21.270;2024-03-08T07:31:08;101378.19;;;19.92
76009;BMP280;64700;52.130;21.270;2024-03-08T07:33:39;101375.00;;;19.94
76009;BMP280;64700;52.130;21.270;2024-03-08T07:36:04;101378.81;;;19.96
76009;BMP280;64700;52.130;21.270;2024-03-08T07:38:30;101376.41;;;19.98
76009;BMP280;64700;52.130;21.270;2024-03-08T07:40:55;101374.78;;;20.01
76009;BMP280;64700;52.130;21.270;2024-03-08T07:43:22;101368.72;;;19.97
76009;BMP280;64700;52.130;21.270;2024-03-08T07:45:47;101371.31;;;20.00
76009;BMP280;64700;52.130;21.270;2024-03-08T07:48:12;101363.94;;;20.01
76009;BMP280;64700;52.130;21.270;2024-03-08T07:50:38;101369.66;;;20.03
76009;BMP280;64700;52.130;21.270;2024-03-08T07:53:04;101368.91;;;20.02
76009;BMP280;64700;52.130;21.270;2024-03-08T07:55:31;101366.19;;;20.02
76009;BMP280;64700;52.130;21.270;2024-03-08T07:57:56;101376.66;;;20.04
76009;BMP280;64700;52.130;21.270;2024-03-08T08:00:21;101370.78;;;20.05
76009;BMP280;64700;52.130;21.270;2024-03-08T08:02:46;101370.03;;;20.05
76009;BMP280;64700;52.130;21.270;2024-03-08T08:05:13;101372.00;;;20.04
76009;BMP280;64700;52.130;21.270;2024-03-08T08:07:39;101370.03;;;20.05
76009;BMP280;64700;52.130;21.270;2024-03-08T08:10:05;101368.84;;;20.06
76009;BMP280;64700;52.130;21.270;2024-03-08T08:12:31;101367.97;;;20.09
76009;BMP280;64700;52.130;21.270;2024-03-08T08:14:59;101365.25;;;20.09
76009;BMP280;64700;52.130;21.270;2024-03-08T08:17:24;101364.78;;;20.11
76009;BMP280;64700;52.130;21.270;2024-03-08T08:19:49;101366.00;;;20.10
76009;BMP280;64700;52.130;21.270;2024-03-08T08:22:15;101369.78;;;20.12
76009;BMP280;64700;52.130;21.270;2024-03-08T08:24:40;101367.84;;;20.13
76009;BMP280;64700;52.130;21.270;2024-03-08T08:27:05;101361.22;;;20.14
76009;BMP280;64700;52.130;21.270;2024-03-08T08:29:30;101363.16;;;20.13
76009;BMP280;64700;52.130;21.270;2024-03-08T08:31:58;101362.72;;;20.15
76009;BMP280;64700;52.130;21.270;2024-03-08T08:34:24;101360.31;;;20.17
76009;BMP280;64700;52.130;21.270;2024-03-08T08:36:51;101351.75;;;20.18
76009;BMP280;64700;52.130;21.270;2024-03-08T08:39:16;101353.25;;;20.19
76009;BMP280;64700;52.130;21.270;2024-03-08T08:41:42;101352.06;;;20.20
76009;BMP280;64700;52.130;21.270;2024-03-08T08:44:07;101343.16;;;20.20
76009;BMP280;64700;52.130;21.270;2024-03-08T08:46:34;101344.69;;;20.21
76009;BMP280;64700;52.130;21.270;2024-03-08T08:49:01;101340.78;;;20.22
76009;BMP280;64700;52.130;21.270;2024-03-08T08:51:26;101349.69;;;20.22
76009;BMP280;64700;52.130;21.270;2024-03-08T08:53:52;101338.38;;;20.24
76009;BMP280;64700;52.130;21.270;2024-03-08T08:56:17;101340.34;;;20.23
76009;BMP280;64700;52.130;21.270;2024-03-08T08:58:43;101332.19;;;20.23
76009;BMP280;64700;52.130;21.270;2024-03-08T09:01:09;101332.94;;;20.24
76009;BMP280;64700;52.130;21.270;2024-03-08T09:03:37;101331.44;;;20.23
76009;BMP280;64700;52.130;21.270;2024-03-08T09:06:05;101330.97;;;20.24
76009;BMP280;64700;52.130;21.270;2024-03-08T09:08:30;101333.69;;;20.24
76009;BMP280;64700;52.130;21.270;2024-03-08T09:10:56;101339.59;;;20.23
76009;BMP280;64700;52.130;21.270;2024-03-08T09:13:21;101334.91;;;20.23
76009;BMP280;64700;52.130;21.270;2024-03-08T09:15:46;101329.78;;;20.25
76009;BMP280;64700;52.130;21.270;2024-03-08T09:18:11;101326.66;;;20.27
76009;BMP280;64700;52.130;21.270;2024-03-08T09:20:36;101319.56;;;20.29
76009;BMP280;64700;52.130;21.270;2024-03-08T09:23:02;101316.41;;;20.31
76009;BMP280;64700;52.130;21.270;2024-03-08T09:25:28;101318.25;;;20.34
76009;BMP280;64700;52.130;21.270;2024-03-08T09:27:53;101317.06;;;20.35
76009;BMP280;64700;52.130;21.270;2024-03-08T09:30:19;101315.75;;;20.39
76009;BMP280;64700;52.130;21.270;2024-03-08T09:32:46;101312.56;;;20.41
76009;BMP280;64700;52.130;21.270;2024-03-08T09:35:11;101312.88;;;20.43
76009;BMP280;64700;52.130;21.270;2024-03-08T09:37:36;101307.31;;;20.46
76009;BMP280;64700;52.130;21.270;2024-03-08T09:40:02;101309.94;;;20.50
76009;BMP280;64700;52.130;21.270;2024-03-08T09:42:33;101306.03;;;20.51
76009;BMP280;64700;52.130;21.270;2024-03-08T09:44:58;101303.75;;;20.49
76009;BMP280;64700;52.130;21.270;2024-03-08T09:47:24;101300.59;;;20.51
76009;BMP280;64700;52.130;21.270;2024-03-08T09:49:52;101302.25;;;20.48
76009;BMP280;64700;52.130;21.270;2024-03-08T09:52:18;101297.56;;;20.49
76009;BMP280;64700;52.130;21.270;2024-03-08T09:54:43;101300.16;;;20.53
76009;BMP280;64700;52.130;21.270;2024-03-08T09:57:09;101296.69;;;20.52
76009;BMP280;64700;52.130;21.270;2024-03-08T09:59:35;101294.13;;;20.58
76009;BMP280;64700;52.130;21.270;2024-03-08T10:02:03;101300.66;;;20.60
76009;BMP280;64700;52.130;21.270;2024-03-08T10:04:28;101301.41;;;20.61
76009;BMP280;64700;52.130;21.270;2024-03-08T10:06:55;101291.31;;;20.61
76009;BMP280;64700;52.130;21.270;2024-03-08T10:09:22;101291.63;;;20.63
76009;BMP280;64700;52.130;21.270;2024-03-08T10:11:50;101289.25;;;20.65
76009;BMP280;64700;52.130;21.270;2024-03-08T10:14:15;101299.97;;;20.69
76009;BMP280;64700;52.130;21.270;2024-03-08T10:16:40;101291.34;;;20.70
76009;BMP280;64700;52.130;21.270;2024-03-08T10:19:05;101283.81;;;20.74
76009;BMP280;64700;52.130;21.270;2024-03-08T10:21:31;101291.09;;;20.77
76009;BMP280;64700;52.130;21.270;2024-03-08T10:23:57;101283.28;;;20.79
76009;BMP280;64700;52.130;21.270;2024-03-08T10:26:24;101287.19;;;20.78
76009;BMP280;64700;52.130;21.270;2024-03-08T10:28:49;101280.34;;;20.74
76009;BMP280;64700;52.130;21.270;2024-03-08T10:31:17;101286.53;;;20.65
76009;BMP280;64700;52.130;21.270;2024-03-08T10:33:44;101285.41;;;20.63
76009;BMP280;64700;52.130;21.270;2024-03-08T10:36:09;101273.47;;;20.60
76009;BMP280;64700;52.130;21.270;2024-03-08T10:38:36;101275.44;;;20.60
76009;BMP280;64700;52.130;21.270;2024-03-08T10:41:01;101276.84;;;20.64
76009;BMP280;64700;52.130;21.270;2024-03-08T10:43:28;101272.47;;;20.67
76009;BMP280;64700;52.130;21.270;2024-03-08T10:48:54;101266.50;;;20.59
76009;BMP280;64700;52.130;21.270;2024-03-08T10:51:20;101263.03;;;20.59
76009;BMP280;64700;52.130;21.270;2024-03-08T10:53:46;101260.78;;;20.57
76009;BMP280;64700;52.130;21.270;2024-03-08T10:56:13;101262.84;;;20.53
76009;BMP280;64700;52.130;21.270;2024-03-08T10:58:39;101257.41;;;20.53
76009;BMP280;64700;52.130;21.270;2024-03-08T11:01:04;101256.34;;;20.51
76009;BMP280;64700;52.130;21.270;2024-03-08T11:06:05;101247.00;;;20.52
76009;BMP280;64700;52.130;21.270;2024-03-08T11:08:31;101253.63;;;20.51
76009;BMP280;64700;52.130;21.270;2024-03-08T11:10:56;101257.56;;;20.49
76009;BMP280;64700;52.130;21.270;2024-03-08T11:13:40;101248.63;;;20.49
76009;BMP280;64700;52.130;21.270;2024-03-08T11:16:09;101253.63;;;20.51
76009;BMP280;64700;52.130;21.270;2024-03-08T11:18:35;101247.44;;;20.50
76009;BMP280;64700;52.130;21.270;2024-03-08T11:21:04;101242.00;;;20.50
76009;BMP280;64700;52.130;21.270;2024-03-08T11:23:32;101248.31;;;20.47
76009;BMP280;64700;52.130;21.270;2024-03-08T11:25:58;101238.34;;;20.44
76009;BMP280;64700;52.130;21.270;2024-03-08T11:28:24;101234.41;;;20.45
76009;BMP280;64700;52.130;21.270;2024-03-08T11:33:27;101232.91;;;20.44
76009;BMP280;64700;52.130;21.270;2024-03-08T11:35:53;101227.47;;;20.44
76009;BMP280;64700;52.130;21.270;2024-03-08T11:38:22;101227.91;;;20.42
76009;BMP280;64700;52.130;21.270;2024-03-08T11:40:47;101226.72;;;20.43
76009;BMP280;64700;52.130;21.270;2024-03-08T11:43:15;101217.81;;;20.43
76009;BMP280;64700;52.130;21.270;2024-03-08T11:45:40;101213.56;;;20.42
76009;BMP280;64700;52.130;21.270;2024-03-08T11:48:06;101211.19;;;20.44
76009;BMP280;64700;52.130;21.270;2024-03-08T11:50:31;101216.91;;;20.46
76009;BMP280;64700;52.130;21.270;2024-03-08T11:53:04;101207.88;;;20.49
76009;BMP280;64700;52.130;21.270;2024-03-08T11:55:30;101208.66;;;20.49
76009;BMP280;64700;52.130;21.270;2024-03-08T11:58:02;101207.16;;;20.48
76009;BMP280;64700;52.130;21.270;2024-03-08T12:00:28;101200.59;;;20.46
76009;BMP280;64700;52.130;21.270;2024-03-08T12:03:03;101199.09;;;20.45
76009;BMP280;64700;52.130;21.270;2024-03-08T12:05:28;101200.31;;;20.44
76009;BMP280;64700;52.130;21.270;2024-03-08T12:07:56;101205.28;;;20.45
76009;BMP280;64700;52.130;21.270;2024-03-08T12:10:22;101194.41;;;20.45
76009;BMP280;64700;52.130;21.270;2024-03-08T12:12:48;101199.09;;;20.45
76009;BMP280;64700;52.130;21.270;2024-03-08T12:15:17;101186.16;;;20.49
76009;BMP280;64700;52.130;21.270;2024-03-08T12:17:43;101188.88;;;20.49
76009;BMP280;64700;52.130;21.270;2024-03-08T12:20:15;101181.81;;;20.52
76009;BMP280;64700;52.130;21.270;2024-03-08T12:22:44;101183.00;;;20.51
76009;BMP280;64700;52.130;21.270;2024-03-08T12:25:10;101183.75;;;20.51
76009;BMP280;64700;52.130;21.270;2024-03-08T12:27:36;101177.13;;;20.52
76009;BMP280;64700;52.130;21.270;2024-03-08T12:30:21;101171.69;;;20.52
76009;BMP280;64700;52.130;21.270;2024-03-08T12:32:48;101174.09;;;20.50
76009;BMP280;64700;52.130;21.270;2024-03-08T12:35:13;101168.66;;;20.50
76009;BMP280;64700;52.130;21.270;2024-03-08T12:37:38;101168.66;;;20.50
76009;BMP280;64700;52.130;21.270;2024-03-08T12:40:06;101165.59;;;20.48
76009;BMP280;64700;52.130;21.270;2024-03-08T12:42:32;101161.38;;;20.47
76009;BMP280;64700;52.130;21.270;2024-03-08T12:44:57;101165.16;;;20.49
76009;BMP280;64700;52.130;21.270;2024-03-08T12:47:24;101159.31;;;20.51
76009;BMP280;64700;52.130;21.270;2024-03-08T12:49:49;101153.53;;;20.49
76009;BMP280;64700;52.130;21.270;2024-03-08T12:52:14;101152.34;;;20.50
76009;BMP280;64700;52.130;21.270;2024-03-08T12:54:43;101155.81;;;20.51
76009;BMP280;64700;52.130;21.270;2024-03-08T12:57:08;101143.75;;;20.52
76009;BMP280;64700;52.130;21.270;2024-03-08T12:59:33;101146.00;;;20.53
76009;BMP280;64700;52.130;21.270;2024-03-08T13:01:58;101143.28;;;20.53
76009;BMP280;64700;52.130;21.270;2024-03-08T13:04:24;101143.63;;;20.55
76009;BMP280;64700;52.130;21.270;2024-03-08T13:06:50;101141.66;;;20.56
76009;BMP280;64700;52.130;21.270;2024-03-08T13:09:15;101135.91;;;20.54
76009;BMP280;64700;52.130;21.270;2024-03-08T13:11:41;101134.09;;;20.51
76009;BMP280;64700;52.130;21.270;2024-03-08T13:14:08;101132.25;;;20.47
76009;BMP280;64700;52.130;21.270;2024-03-08T13:16:35;101129.97;;;20.46
76009;BMP280;64700;52.130;21.270;2024-03-08T13:19:00;101133.44;;;20.46
76009;BMP280;64700;52.130;21.270;2024-03-08T13:21:25;101121.53;;;20.44
76009;BMP280;64700;52.130;21.270;2024-03-08T13:23:50;101127.69;;;20.44
76009;BMP280;64700;52.130;21.270;2024-03-08T13:26:17;101117.16;;;20.46
76009;BMP280;64700;52.130;21.270;2024-03-08T13:28:43;101111.28;;;20.48
76009;BMP280;64700;52.130;21.270;2024-03-08T13:31:08;101107.34;;;20.49
76009;BMP280;64700;52.130;21.270;2024-03-08T13:33:39;101106.16;;;20.50
76009;BMP280;64700;52.130;21.270;2024-03-08T13:36:06;101105.25;;;20.53
76009;BMP280;64700;52.130;21.270;2024-03-08T13:38:37;101100.13;;;20.55
76009;BMP280;64700;52.130;21.270;2024-03-08T13:41:03;101098.63;;;20.54
76009;BMP280;64700;52.130;21.270;2024-03-08T13:43:28;101093.66;;;20.53
76009;BMP280;64700;52.130;21.270;2024-03-08T13:45:55;101096.38;;;20.53